Time;durP1;ratioP1;P1;durP2;ratioP2;P2;SDS_P1;SDS_P2;PMS_P1;PMS_P2;Temp;Humidity;BMP_temperature;BMP_pressure;BME280_temperature;BME280_humidity;BME280_pressure;Samples;Min_cycle;Max_cycle;Signal;HPM_P1;HPM_P2
2022/11/08 00:01:40;;;;;;;3.65;2.20;;;;;;;;;;5071007;28;20028;-44
2022/11/08 00:04:07;;;;;;;3.90;2.55;;;;;;;;;;5072154;28;20028;-45
2022/11/08 00:14:47;;;;;;;2.90;1.50;;;;;;;;;;5072460;28;20027;-44
2022/11/08 00:17:14;;;;;;;2.60;1.70;;;;;;;;;;5073232;28;20020;-49
2022/11/08 00:19:40;;;;;;;3.15;1.85;;;;;;;;;;5073180;28;20028;-44
2022/11/08 00:22:06;;;;;;;4.28;1.75;;;;;;;;;;5072977;28;20016;-44
2022/11/08 00:24:33;;;;;;;4.35;1.92;;;;;;;;;;5071810;28;20020;-46
2022/11/08 00:26:59;;;;;;;2.42;1.65;;;;;;;;;;5058223;28;20021;-44
2022/11/08 00:29:25;;;;;;;2.80;2.00;;;;;;;;;;5071406;28;20385;-44
2022/11/08 00:31:51;;;;;;;4.40;1.77;;;;;;;;;;5071162;28;20020;-44
2022/11/08 00:34:17;;;;;;;3.88;1.98;;;;;;;;;;5071021;28;20084;-49
2022/11/08 00:36:43;;;;;;;4.55;1.90;;;;;;;;;;5071806;28;20520;-44
2022/11/08 00:39:10;;;;;;;2.83;1.75;;;;;;;;;;5065573;28;20051;-44
2022/11/08 00:41:36;;;;;;;3.50;2.08;;;;;;;;;;5071334;28;20021;-45
2022/11/08 00:44:02;;;;;;;2.97;1.90;;;;;;;;;;5072704;28;20024;-44
2022/11/08 00:46:28;;;;;;;2.50;1.77;;;;;;;;;;5068734;28;20029;-44
2022/11/08 00:48:53;;;;;;;2.17;1.58;;;;;;;;;;5072393;28;20021;-44
2022/11/08 00:51:19;;;;;;;3.35;1.45;;;;;;;;;;5075380;28;20020;-45
2022/11/08 00:53:45;;;;;;;3.67;2.30;;;;;;;;;;5074936;28;20396;-45
2022/11/08 00:56:12;;;;;;;3.40;1.52;;;;;;;;;;5073408;28;20096;-44
2022/11/08 00:58:40;;;;;;;3.55;1.80;;;;;;;;;;5072836;28;20023;-44
2022/11/08 01:01:13;;;;;;;2.75;1.63;;;;;;;;;;5073008;28;20492;-44
2022/11/08 01:03:39;;;;;;;2.85;1.90;;;;;;;;;;5072689;28;20032;-44
2022/11/08 01:06:06;;;;;;;3.63;1.70;;;;;;;;;;5072912;28;20012;-44
2022/11/08 01:08:32;;;;;;;4.07;2.47;;;;;;;;;;5076336;28;20099;-44
2022/11/08 01:11:00;;;;;;;2.92;1.60;;;;;;;;;;5080170;28;20074;-44
2022/11/08 01:13:26;;;;;;;2.63;1.50;;;;;;;;;;5072449;28;20025;-44
2022/11/08 01:15:52;;;;;;;3.90;1.73;;;;;;;;;;5072960;28;20468;-44
2022/11/08 01:18:18;;;;;;;3.47;2.08;;;;;;;;;;5070210;28;20020;-44
2022/11/08 01:20:45;;;;;;;4.35;1.95;;;;;;;;;;5072642;28;20072;-44
2022/11/08 01:23:12;;;;;;;2.33;1.77;;;;;;;;;;5073546;28;20028;-44
2022/11/08 01:25:39;;;;;;;3.58;1.73;;;;;;;;;;5078767;28;20098;-44
2022/11/08 01:28:05;;;;;;;2.05;1.30;;;;;;;;;;5082405;28;20025;-44
2022/11/08 01:30:31;;;;;;;2.58;1.77;;;;;;;;;;5071934;28;20095;-45
2022/11/08 01:32:57;;;;;;;2.50;1.58;;;;;;;;;;5072528;28;20044;-44
2022/11/08 01:35:23;;;;;;;2.67;1.70;;;;;;;;;;5071326;28;20072;-44
2022/11/08 01:37:50;;;;;;;4.25;2.25;;;;;;;;;;5072791;28;20031;-45
2022/11/08 01:40:16;;;;;;;4.38;1.92;;;;;;;;;;5072983;28;20021;-49
2022/11/08 01:42:42;;;;;;;3.70;1.95;;;;;;;;;;5072346;28;20027;-45
2022/11/08 01:45:10;;;;;;;3.67;1.70;;;;;;;;;;5072107;28;20028;-44
2022/11/08 01:47:36;;;;;;;2.67;1.67;;;;;;;;;;5066296;28;20570;-45
2022/11/08 01:50:09;;;;;;;2.67;1.70;;;;;;;;;;5054076;28;20361;-44
2022/11/08 01:52:39;;;;;;;2.75;1.70;;;;;;;;;;5053542;28;20595;-44
2022/11/08 01:55:07;;;;;;;3.40;1.70;;;;;;;;;;5072148;28;20390;-44
2022/11/08 01:57:36;;;;;;;2.75;1.95;;;;;;;;;;5071642;28;20025;-44
2022/11/08 02:00:07;;;;;;;2.55;1.65;;;;;;;;;;5075384;28;20020;-44
2022/11/08 02:02:33;;;;;;;2.45;1.77;;;;;;;;;;5061094;28;20108;-44
2022/11/08 02:05:00;;;;;;;3.22;1.58;;;;;;;;;;5069384;28;20024;-44
2022/11/08 02:07:27;;;;;;;2.45;1.70;;;;;;;;;;5071442;28;20020;-44
2022/11/08 02:09:55;;;;;;;2.55;1.75;;;;;;;;;;5071534;28;20424;-44
2022/11/08 02:12:21;;;;;;;2.08;1.50;;;;;;;;;;5071655;28;20044;-44
2022/11/08 02:14:47;;;;;;;5.00;1.58;;;;;;;;;;5072353;28;20043;-44
2022/11/08 02:17:14;;;;;;;2.53;1.83;;;;;;;;;;5081455;28;20021;-49
2022/11/08 02:19:42;;;;;;;3.08;1.48;;;;;;;;;;5070779;28;20017;-44
2022/11/08 02:22:26;;;;;;;1.98;1.35;;;;;;;;;;5071584;28;20366;-44
2022/11/08 02:24:53;;;;;;;2.00;1.40;;;;;;;;;;5071528;28;20016;-44
2022/11/08 02:27:19;;;;;;;2.53;1.30;;;;;;;;;;5080324;28;20361;-44
2022/11/08 02:29:45;;;;;;;3.13;1.73;;;;;;;;;;5071532;28;20017;-44
2022/11/08 02:32:11;;;;;;;2.85;1.73;;;;;;;;;;5078957;28;20028;-44
2022/11/08 02:34:40;;;;;;;2.60;1.20;;;;;;;;;;5070562;28;20558;-44
2022/11/08 02:37:07;;;;;;;2.80;1.45;;;;;;;;;;5071545;28;20166;-46
2022/11/08 02:39:33;;;;;;;3.88;2.05;;;;;;;;;;5070589;28;20063;-44
2022/11/08 02:41:59;;;;;;;2.67;1.40;;;;;;;;;;5070011;28;20467;-44
2022/11/08 02:44:25;;;;;;;3.92;1.30;;;;;;;;;;5069628;28;20489;-45
2022/11/08 02:46:51;;;;;;;2.50;1.23;;;;;;;;;;5052956;28;20016;-44
2022/11/08 02:49:17;;;;;;;2.75;1.63;;;;;;;;;;5079547;28;20574;-49
2022/11/08 02:51:43;;;;;;;2.00;1.50;;;;;;;;;;5075624;28;20048;-44
2022/11/08 02:54:09;;;;;;;3.00;1.50;;;;;;;;;;5071366;28;20123;-45
2022/11/08 02:56:35;;;;;;;2.00;1.55;;;;;;;;;;5070223;28;20078;-44
2022/11/08 02:59:01;;;;;;;2.95;1.40;;;;;;;;;;5071858;28;20096;-45
2022/11/08 03:01:27;;;;;;;2.88;1.60;;;;;;;;;;5070327;28;20049;-45
2022/11/08 03:03:53;;;;;;;2.80;1.67;;;;;;;;;;5071721;28;20029;-44
2022/11/08 03:06:19;;;;;;;2.53;1.40;;;;;;;;;;5071353;28;20016;-45
2022/11/08 03:08:45;;;;;;;3.28;1.58;;;;;;;;;;5071304;28;20100;-45
2022/11/08 03:11:11;;;;;;;2.95;1.20;;;;;;;;;;5071078;28;20454;-44
2022/11/08 03:13:37;;;;;;;2.40;1.73;;;;;;;;;;5065736;28;20024;-44
2022/11/08 03:16:06;;;;;;;2.45;1.63;;;;;;;;;;5070689;28;20035;-45
2022/11/08 03:18:33;;;;;;;2.28;1.50;;;;;;;;;;5070838;28;20017;-44
2022/11/08 03:21:00;;;;;;;1.80;1.35;;;;;;;;;;5052895;28;20112;-44
2022/11/08 03:23:26;;;;;;;2.65;1.63;;;;;;;;;;5074306;28;20361;-44
2022/11/08 03:25:52;;;;;;;3.70;1.30;;;;;;;;;;5056559;28;20103;-44
2022/11/08 03:28:18;;;;;;;2.55;1.48;;;;;;;;;;5081756;28;20099;-48
2022/11/08 03:30:44;;;;;;;2.25;1.55;;;;;;;;;;5074963;28;20020;-44
2022/11/08 03:33:10;;;;;;;2.08;1.63;;;;;;;;;;5074789;28;20112;-44
2022/11/08 03:35:36;;;;;;;2.33;1.60;;;;;;;;;;5073721;28;20021;-44
2022/11/08 03:38:02;;;;;;;2.22;1.55;;;;;;;;;;5057254;28;20108;-44
2022/11/08 03:40:28;;;;;;;2.40;1.90;;;;;;;;;;5075780;28;20047;-44
2022/11/08 03:42:58;;;;;;;2.72;1.33;;;;;;;;;;5072560;28;20368;-44
2022/11/08 03:45:24;;;;;;;2.63;1.55;;;;;;;;;;5073479;28;20452;-44
2022/11/08 03:47:50;;;;;;;1.98;1.30;;;;;;;;;;5075162;28;20052;-46
2022/11/08 03:50:16;;;;;;;1.98;1.65;;;;;;;;;;5074113;28;20381;-50
2022/11/08 03:52:43;;;;;;;3.65;1.70;;;;;;;;;;5074855;28;20021;-44
2022/11/08 03:55:10;;;;;;;1.70;1.20;;;;;;;;;;5074970;28;20048;-46
2022/11/08 03:57:37;;;;;;;2.35;1.50;;;;;;;;;;5074105;28;20024;-45
2022/11/08 04:00:03;;;;;;;1.98;1.38;;;;;;;;;;5074331;28;20107;-45
2022/11/08 04:02:29;;;;;;;1.75;1.20;;;;;;;;;;5074048;28;20021;-44
2022/11/08 04:04:55;;;;;;;1.75;1.30;;;;;;;;;;5074161;28;20020;-44
2022/11/08 04:07:21;;;;;;;2.90;1.40;;;;;;;;;;5074010;28;20056;-45
2022/11/08 04:09:47;;;;;;;2.88;1.90;;;;;;;;;;5074266;28;20476;-43
2022/11/08 04:15:17;;;;;;;2.28;1.58;;;;;;;;;;5073904;28;20062;-43
2022/11/08 04:23:14;;;;;;;2.10;1.25;;;;;;;;;;5061974;28;20082;-48
2022/11/08 04:25:40;;;;;;;1.45;1.30;;;;;;;;;;5072919;28;20028;-45
2022/11/08 04:28:06;;;;;;;3.13;1.73;;;;;;;;;;5086507;28;20338;-44
2022/11/08 04:30:32;;;;;;;2.30;1.58;;;;;;;;;;5075367;28;20023;-44
2022/11/08 04:33:02;;;;;;;2.15;1.30;;;;;;;;;;5063012;28;20179;-44
2022/11/08 04:35:29;;;;;;;2.25;1.38;;;;;;;;;;5067706;28;20028;-44
2022/11/08 04:37:59;;;;;;;1.63;1.30;;;;;;;;;;5073619;28;20095;-44
2022/11/08 04:40:25;;;;;;;2.78;1.45;;;;;;;;;;5072735;28;20013;-44
2022/11/08 04:42:51;;;;;;;2.25;1.58;;;;;;;;;;5073932;28;20437;-44
2022/11/08 04:45:17;;;;;;;1.67;1.30;;;;;;;;;;5073564;28;20082;-49
2022/11/08 04:47:46;;;;;;;2.00;1.35;;;;;;;;;;5065238;28;20350;-45
2022/11/08 04:50:12;;;;;;;2.63;1.58;;;;;;;;;;5069489;28;20036;-44
2022/11/08 04:52:38;;;;;;;1.70;1.10;;;;;;;;;;5072760;28;20020;-44
2022/11/08 04:55:04;;;;;;;2.15;1.48;;;;;;;;;;5073279;28;20031;-44
2022/11/08 04:57:30;;;;;;;2.25;1.25;;;;;;;;;;5072780;28;20362;-45
2022/11/08 04:59:56;;;;;;;1.40;1.10;;;;;;;;;;5073310;28;20027;-44
2022/11/08 05:02:22;;;;;;;4.25;1.33;;;;;;;;;;5071477;28;20020;-44
2022/11/08 05:04:48;;;;;;;1.38;1.08;;;;;;;;;;5073197;28;20021;-44
2022/11/08 05:07:14;;;;;;;2.85;1.23;;;;;;;;;;5073254;28;20357;-49
2022/11/08 05:09:41;;;;;;;2.38;1.40;;;;;;;;;;5072241;28;20040;-45
2022/11/08 05:12:07;;;;;;;2.05;1.20;;;;;;;;;;5073484;28;20063;-44
2022/11/08 05:14:33;;;;;;;1.73;1.08;;;;;;;;;;5071828;28;20035;-44
2022/11/08 05:16:59;;;;;;;1.92;1.33;;;;;;;;;;5072949;28;20021;-45
2022/11/08 05:25:01;;;;;;;3.40;1.17;;;;;;;;;;5061659;28;20504;-45
2022/11/08 05:27:27;;;;;;;3.63;1.80;;;;;;;;;;5080325;28;20016;-44
2022/11/08 05:29:53;;;;;;;2.25;1.42;;;;;;;;;;5067088;28;20032;-44
2022/11/08 05:32:19;;;;;;;1.52;1.15;;;;;;;;;;5071695;28;20051;-44
2022/11/08 05:34:45;;;;;;;3.42;1.63;;;;;;;;;;5072428;28;20081;-45
2022/11/08 05:37:11;;;;;;;2.28;1.38;;;;;;;;;;5082439;28;20042;-44
2022/11/08 05:39:37;;;;;;;2.17;1.33;;;;;;;;;;5071744;28;20099;-44
2022/11/08 05:42:04;;;;;;;2.25;1.38;;;;;;;;;;5072864;28;20122;-44
2022/11/08 05:44:30;;;;;;;3.60;1.60;;;;;;;;;;5071403;28;20028;-45
2022/11/08 05:46:56;;;;;;;2.95;1.50;;;;;;;;;;5072659;28;20013;-44
2022/11/08 05:49:22;;;;;;;1.23;0.90;;;;;;;;;;5070746;28;20096;-44
2022/11/08 05:51:48;;;;;;;1.98;1.50;;;;;;;;;;5072749;28;20024;-45
2022/11/08 05:54:14;;;;;;;1.90;1.10;;;;;;;;;;5077257;28;20493;-50
2022/11/08 05:56:40;;;;;;;2.80;1.27;;;;;;;;;;5069169;28;20020;-44
2022/11/08 05:59:06;;;;;;;1.38;1.10;;;;;;;;;;5053290;28;20025;-44
2022/11/08 06:01:31;;;;;;;1.65;1.20;;;;;;;;;;5066188;28;20020;-44
2022/11/08 06:03:57;;;;;;;2.13;1.42;;;;;;;;;;5072445;28;20056;-45
2022/11/08 06:06:24;;;;;;;1.92;1.23;;;;;;;;;;5071218;28;20020;-44
2022/11/08 06:08:50;;;;;;;2.20;1.17;;;;;;;;;;5072502;28;20016;-49
2022/11/08 06:11:17;;;;;;;1.13;0.85;;;;;;;;;;5057001;28;20029;-49
2022/11/08 06:13:43;;;;;;;1.30;1.20;;;;;;;;;;5072185;28;20032;-44
2022/11/08 06:16:10;;;;;;;1.35;1.00;;;;;;;;;;5071418;28;20055;-44
2022/11/08 06:18:37;;;;;;;1.95;1.40;;;;;;;;;;5071306;28;20059;-44
2022/11/08 06:21:04;;;;;;;2.47;1.20;;;;;;;;;;5071690;28;20020;-44
2022/11/08 06:23:30;;;;;;;1.73;1.20;;;;;;;;;;5061692;28;20075;-45
2022/11/08 06:25:57;;;;;;;5.07;1.20;;;;;;;;;;5078756;28;20023;-45
2022/11/08 06:28:23;;;;;;;2.95;1.30;;;;;;;;;;5076571;28;20121;-44
2022/11/08 06:30:49;;;;;;;2.15;1.10;;;;;;;;;;5070257;28;20025;-44
2022/11/08 06:33:15;;;;;;;4.10;1.17;;;;;;;;;;5071354;28;20346;-50
2022/11/08 06:35:41;;;;;;;3.72;1.70;;;;;;;;;;5048226;28;20148;-44
2022/11/08 06:38:07;;;;;;;2.53;1.27;;;;;;;;;;5065939;28;20096;-44
2022/11/08 06:40:33;;;;;;;4.78;1.63;;;;;;;;;;5069376;28;20032;-44
2022/11/08 06:42:59;;;;;;;7.38;2.88;;;;;;;;;;5071841;28;20028;-44
2022/11/08 06:45:26;;;;;;;4.57;1.90;;;;;;;;;;5068818;28;20024;-44
2022/11/08 06:47:58;;;;;;;3.22;2.30;;;;;;;;;;5062903;28;20020;-45
2022/11/08 06:50:24;;;;;;;3.10;2.20;;;;;;;;;;5070467;28;20100;-44
2022/11/08 06:53:00;;;;;;;8.30;3.45;;;;;;;;;;5071263;28;20016;-47
2022/11/08 06:55:26;;;;;;;5.53;2.80;;;;;;;;;;5069887;28;20099;-42
2022/11/08 06:57:52;;;;;;;5.35;3.08;;;;;;;;;;5071309;28;20458;-44
2022/11/08 07:00:19;;;;;;;4.28;2.28;;;;;;;;;;5068618;28;20029;-45
2022/11/08 07:02:45;;;;;;;6.65;2.08;;;;;;;;;;5071031;28;20114;-44
2022/11/08 07:05:11;;;;;;;4.40;2.33;;;;;;;;;;5071127;28;20020;-44
2022/11/08 07:07:38;;;;;;;6.95;2.58;;;;;;;;;;5080043;28;20173;-44
2022/11/08 07:10:04;;;;;;;5.65;2.20;;;;;;;;;;5065474;28;20033;-45
2022/11/08 07:12:30;;;;;;;4.90;2.25;;;;;;;;;;5063696;28;20028;-44
2022/11/08 07:14:56;;;;;;;4.32;2.45;;;;;;;;;;5081540;28;20473;-44
2022/11/08 07:17:22;;;;;;;3.30;1.95;;;;;;;;;;5068945;28;20044;-45
2022/11/08 07:19:48;;;;;;;5.65;2.40;;;;;;;;;;5072348;28;20401;-44
2022/11/08 07:22:14;;;;;;;3.55;1.80;;;;;;;;;;5070725;28;20023;-49
2022/11/08 07:24:40;;;;;;;5.03;2.30;;;;;;;;;;5075602;28;20024;-45
2022/11/08 07:27:06;;;;;;;3.72;1.70;;;;;;;;;;5077798;28;20020;-44
2022/11/08 07:29:32;;;;;;;4.88;1.95;;;;;;;;;;5071726;28;20020;-44
2022/11/08 07:31:58;;;;;;;4.00;1.92;;;;;;;;;;5070836;28;20441;-44
2022/11/08 07:34:24;;;;;;;6.75;2.15;;;;;;;;;;5069112;28;20045;-44
2022/11/08 07:36:50;;;;;;;4.60;2.17;;;;;;;;;;5071131;28;20023;-44
2022/11/08 07:39:16;;;;;;;4.53;2.17;;;;;;;;;;5063110;28;20454;-50
2022/11/08 07:41:42;;;;;;;8.02;2.53;;;;;;;;;;5072425;28;20025;-45
2022/11/08 07:44:08;;;;;;;7.57;2.45;;;;;;;;;;5070425;28;20032;-45
2022/11/08 07:46:34;;;;;;;5.28;2.22;;;;;;;;;;5065503;28;20091;-45
2022/11/08 07:49:00;;;;;;;6.05;2.30;;;;;;;;;;5070853;28;20458;-44
2022/11/08 07:51:26;;;;;;;6.45;2.20;;;;;;;;;;5069540;28;20028;-45
2022/11/08 07:53:52;;;;;;;6.22;2.75;;;;;;;;;;5070662;28;20029;-46
2022/11/08 07:56:18;;;;;;;7.55;3.00;;;;;;;;;;5069245;28;20016;-49
2022/11/08 07:58:44;;;;;;;8.32;2.05;;;;;;;;;;5070359;28;20028;-44
2022/11/08 08:01:10;;;;;;;8.20;3.63;;;;;;;;;;5070101;28;20468;-44
2022/11/08 08:03:36;;;;;;;8.25;2.75;;;;;;;;;;5070099;28;20020;-46
2022/11/08 08:06:02;;;;;;;6.00;2.00;;;;;;;;;;5069632;28;20017;-44
2022/11/08 08:08:28;;;;;;;5.50;2.47;;;;;;;;;;5069956;28;20021;-44
2022/11/08 08:10:59;;;;;;;6.88;2.40;;;;;;;;;;5070278;28;20023;-44
2022/11/08 08:13:25;;;;;;;9.50;3.00;;;;;;;;;;5065816;28;20067;-45
2022/11/08 08:15:50;;;;;;;5.72;2.88;;;;;;;;;;5072500;28;20052;-45
2022/11/08 08:18:19;;;;;;;6.18;2.17;;;;;;;;;;5073480;28;20046;-49
2022/11/08 08:20:46;;;;;;;7.00;2.80;;;;;;;;;;5072998;28;20029;-45
2022/11/08 08:23:11;;;;;;;6.43;2.47;;;;;;;;;;5074126;28;20047;-44
2022/11/08 08:25:37;;;;;;;10.98;2.92;;;;;;;;;;5071448;28;20493;-45
2022/11/08 08:28:04;;;;;;;8.73;2.95;;;;;;;;;;5069723;28;20500;-46
2022/11/08 08:30:31;;;;;;;6.90;2.60;;;;;;;;;;5071363;28;20027;-45
2022/11/08 08:33:01;;;;;;;5.65;2.13;;;;;;;;;;5071280;28;20036;-45
2022/11/08 08:35:27;;;;;;;6.07;2.47;;;;;;;;;;5071957;28;20021;-45
2022/11/08 08:37:57;;;;;;;6.70;2.50;;;;;;;;;;5073159;28;20104;-44
2022/11/08 08:40:22;;;;;;;7.80;2.65;;;;;;;;;;5071897;28;20032;-45
2022/11/08 08:42:48;;;;;;;5.50;2.38;;;;;;;;;;5073805;28;20112;-44
2022/11/08 08:45:14;;;;;;;5.15;2.35;;;;;;;;;;5066828;28;20024;-48
2022/11/08 08:47:40;;;;;;;8.00;2.45;;;;;;;;;;5072537;28;20095;-44
2022/11/08 08:50:06;;;;;;;5.82;2.50;;;;;;;;;;5067089;28;20032;-45
2022/11/08 08:52:32;;;;;;;9.48;2.63;;;;;;;;;;5072654;28;20106;-44
2022/11/08 08:54:58;;;;;;;8.25;2.72;;;;;;;;;;5072646;28;20021;-45
2022/11/08 08:57:24;;;;;;;5.88;2.55;;;;;;;;;;5072241;28;20082;-45
2022/11/08 08:59:50;;;;;;;3.63;2.33;;;;;;;;;;5072658;28;20017;-44
2022/11/08 09:02:16;;;;;;;5.18;2.42;;;;;;;;;;5072775;28;20027;-50
2022/11/08 09:04:42;;;;;;;7.53;2.45;;;;;;;;;;5072811;28;20048;-44
2022/11/08 09:07:08;;;;;;;8.45;2.30;;;;;;;;;;5072104;28;20070;-44
2022/11/08 09:09:35;;;;;;;6.50;2.72;;;;;;;;;;5071582;28;20025;-44
2022/11/08 09:12:01;;;;;;;5.85;2.33;;;;;;;;;;5072990;28;20099;-45
2022/11/08 09:14:27;;;;;;;5.35;2.30;;;;;;;;;;5071605;28;20404;-46
2022/11/08 09:16:53;;;;;;;10.05;3.72;;;;;;;;;;5072454;28;20058;-44
2022/11/08 09:19:19;;;;;;;5.15;1.98;;;;;;;;;;5071657;28;20024;-48
2022/11/08 09:21:45;;;;;;;4.47;2.17;;;;;;;;;;5072263;28;20017;-44
2022/11/08 09:24:11;;;;;;;4.18;1.80;;;;;;;;;;5064745;28;20131;-44
2022/11/08 09:26:37;;;;;;;3.53;2.35;;;;;;;;;;5075060;28;20119;-45
2022/11/08 09:29:03;;;;;;;3.78;2.00;;;;;;;;;;5081214;28;20020;-45
2022/11/08 09:31:29;;;;;;;5.72;2.78;;;;;;;;;;5070927;28;20502;-44
2022/11/08 09:33:55;;;;;;;5.25;2.13;;;;;;;;;;5071843;28;20044;-45
2022/11/08 09:36:22;;;;;;;4.25;2.22;;;;;;;;;;5070882;28;20097;-45
2022/11/08 09:38:48;;;;;;;4.05;2.08;;;;;;;;;;5072274;28;20012;-44
2022/11/08 09:41:20;;;;;;;5.40;2.40;;;;;;;;;;5071068;28;20031;-50
2022/11/08 09:44:02;;;;;;;3.85;1.92;;;;;;;;;;5068975;28;20024;-44
2022/11/08 09:46:32;;;;;;;4.65;2.15;;;;;;;;;;5060823;28;20360;-44
2022/11/08 09:48:59;;;;;;;7.57;3.08;;;;;;;;;;5071694;28;20430;-45
2022/11/08 09:51:25;;;;;;;3.42;1.90;;;;;;;;;;5061345;28;20373;-45
2022/11/08 09:53:51;;;;;;;5.50;2.00;;;;;;;;;;5067957;28;20020;-46
2022/11/08 09:56:17;;;;;;;7.10;2.40;;;;;;;;;;5071617;28;20532;-49
2022/11/08 09:59:02;;;;;;;10.68;3.28;;;;;;;;;;5071914;28;20020;-44
2022/11/08 10:01:35;;;;;;;9.35;2.40;;;;;;;;;;5070531;28;20033;-45
2022/11/08 10:04:06;;;;;;;8.95;2.63;;;;;;;;;;5072075;28;20016;-44
2022/11/08 10:06:42;;;;;;;6.40;2.50;;;;;;;;;;5058955;28;20017;-44
2022/11/08 10:09:11;;;;;;;7.68;2.30;;;;;;;;;;5072027;28;20025;-44
2022/11/08 10:11:53;;;;;;;8.30;2.40;;;;;;;;;;5070182;28;20086;-44
2022/11/08 10:14:28;;;;;;;4.93;2.45;;;;;;;;;;5070509;28;20418;-50
2022/11/08 10:17:13;;;;;;;5.85;3.28;;;;;;;;;;5064368;28;20411;-47
2022/11/08 10:19:41;;;;;;;4.72;2.25;;;;;;;;;;5070645;28;20036;-45
2022/11/08 10:22:18;;;;;;;6.57;3.00;;;;;;;;;;5062725;28;20020;-45
2022/11/08 10:24:44;;;;;;;5.45;2.40;;;;;;;;;;5071521;28;20446;-45
2022/11/08 10:27:14;;;;;;;9.25;2.75;;;;;;;;;;5075617;28;20016;-44
2022/11/08 10:29:42;;;;;;;5.07;2.60;;;;;;;;;;5070886;28;20035;-44
2022/11/08 10:32:18;;;;;;;6.00;3.08;;;;;;;;;;5070641;28;20095;-46
2022/11/08 10:34:51;;;;;;;3.72;2.40;;;;;;;;;;5071261;28;20024;-44
2022/11/08 10:37:17;;;;;;;5.15;2.60;;;;;;;;;;5070449;28;20531;-50
2022/11/08 10:39:50;;;;;;;7.82;2.42;;;;;;;;;;5070971;28;20029;-44
2022/11/08 10:42:21;;;;;;;5.75;2.25;;;;;;;;;;5070508;28;20373;-49
2022/11/08 10:44:47;;;;;;;7.10;1.98;;;;;;;;;;5067418;28;20061;-44
2022/11/08 10:47:17;;;;;;;5.70;2.03;;;;;;;;;;5065357;28;20020;-44
2022/11/08 10:49:43;;;;;;;5.82;2.25;;;;;;;;;;5070010;28;20024;-44
2022/11/08 10:52:19;;;;;;;4.43;1.90;;;;;;;;;;5071096;28;20032;-44
2022/11/08 10:54:58;;;;;;;6.05;1.88;;;;;;;;;;5070785;28;20108;-44
2022/11/08 10:57:27;;;;;;;4.90;2.47;;;;;;;;;;5070441;28;20108;-46
2022/11/08 10:59:54;;;;;;;5.80;2.40;;;;;;;;;;5059054;28;20524;-45
2022/11/08 11:02:31;;;;;;;4.78;3.35;;;;;;;;;;5069065;28;20048;-46
2022/11/08 11:05:16;;;;;;;6.50;2.05;;;;;;;;;;5070587;28;20489;-45
2022/11/08 11:08:06;;;;;;;5.88;3.15;;;;;;;;;;5070849;28;20139;-44
2022/11/08 11:10:33;;;;;;;6.25;2.05;;;;;;;;;;5045236;28;20107;-44
2022/11/08 11:13:17;;;;;;;4.15;1.95;;;;;;;;;;5071160;28;20131;-46
2022/11/08 11:15:44;;;;;;;5.90;2.78;;;;;;;;;;5064390;28;20086;-44
2022/11/08 11:18:19;;;;;;;6.22;2.13;;;;;;;;;;5070753;28;20109;-44
2022/11/08 11:21:03;;;;;;;6.07;2.28;;;;;;;;;;5070303;28;20027;-44
2022/11/08 11:23:52;;;;;;;5.82;2.30;;;;;;;;;;5068115;28;20033;-44
2022/11/08 11:26:33;;;;;;;4.15;2.05;;;;;;;;;;5057938;28;20094;-49
2022/11/08 11:29:05;;;;;;;4.60;1.85;;;;;;;;;;5074647;28;20473;-45
2022/11/08 11:31:32;;;;;;;3.80;1.90;;;;;;;;;;5069880;28;20027;-44
2022/11/08 11:33:59;;;;;;;6.18;2.40;;;;;;;;;;5070220;28;20161;-44
2022/11/08 11:36:27;;;;;;;3.97;2.10;;;;;;;;;;5069676;28;20037;-44
2022/11/08 11:38:53;;;;;;;3.15;1.67;;;;;;;;;;5071141;28;20347;-44
2022/11/08 11:41:28;;;;;;;4.95;2.30;;;;;;;;;;5068680;28;20036;-45
2022/11/08 11:43:57;;;;;;;3.97;2.03;;;;;;;;;;5070614;28;20036;-45
2022/11/08 11:46:29;;;;;;;6.22;2.63;;;;;;;;;;5069658;28;20013;-45
2022/11/08 11:48:59;;;;;;;4.18;1.80;;;;;;;;;;5072657;28;20020;-44
2022/11/08 11:51:26;;;;;;;3.08;1.98;;;;;;;;;;5073560;28;20017;-45
2022/11/08 11:53:52;;;;;;;2.78;1.85;;;;;;;;;;5074294;28;20110;-45
2022/11/08 11:56:21;;;;;;;2.15;1.45;;;;;;;;;;5072930;28;20025;-49
2022/11/08 11:59:00;;;;;;;3.92;2.00;;;;;;;;;;5074541;28;20069;-44
2022/11/08 12:01:49;;;;;;;3.90;2.40;;;;;;;;;;5073325;28;20029;-44
2022/11/08 12:04:24;;;;;;;5.22;1.67;;;;;;;;;;5073597;28;20028;-49
2022/11/08 12:06:50;;;;;;;5.07;1.83;;;;;;;;;;5070672;28;20229;-45
2022/11/08 12:09:22;;;;;;;3.30;1.77;;;;;;;;;;5055574;28;20125;-50
2022/11/08 12:11:58;;;;;;;;;;;;;;;;;;5075048;28;20032;-47
2022/11/08 12:14:24;;;;;;;5.90;1.85;;;;;;;;;;5069655;28;19912;-44
2022/11/08 12:17:00;;;;;;;8.98;2.45;;;;;;;;;;5061961;28;20340;-44
2022/11/08 12:19:26;;;;;;;3.17;1.65;;;;;;;;;;5072317;28;20081;-44
2022/11/08 12:22:01;;;;;;;5.90;2.30;;;;;;;;;;5070387;28;20016;-44
2022/11/08 12:24:33;;;;;;;4.97;1.60;;;;;;;;;;5072801;28;20036;-44
2022/11/08 12:27:14;;;;;;;3.05;1.55;;;;;;;;;;5078503;28;20020;-45
2022/11/08 12:29:49;;;;;;;3.75;2.13;;;;;;;;;;5062656;28;20017;-43
2022/11/08 12:32:34;;;;;;;2.92;1.60;;;;;;;;;;5067505;28;20016;-50
2022/11/08 12:35:10;;;;;;;4.07;1.70;;;;;;;;;;5072897;28;20040;-45
2022/11/08 12:37:39;;;;;;;5.25;1.83;;;;;;;;;;5073127;28;20024;-46
2022/11/08 12:40:15;;;;;;;3.42;1.60;;;;;;;;;;5069778;28;20526;-46
2022/11/08 12:42:52;;;;;;;5.07;2.35;;;;;;;;;;5073306;28;20047;-44
2022/11/08 12:45:27;;;;;;;5.70;1.70;;;;;;;;;;5072283;28;20031;-49
2022/11/08 12:48:03;;;;;;;3.90;1.40;;;;;;;;;;5061019;28;20052;-44
2022/11/08 12:50:51;;;;;;;5.07;1.88;;;;;;;;;;5071649;28;20012;-44
2022/11/08 12:53:36;;;;;;;4.97;1.40;;;;;;;;;;5072456;28;20483;-49
2022/11/08 12:56:03;;;;;;;2.95;1.60;;;;;;;;;;5072701;28;20082;-44
2022/11/08 12:58:32;;;;;;;2.83;1.60;;;;;;;;;;5072648;28;20024;-45
2022/11/08 13:01:00;;;;;;;3.92;1.65;;;;;;;;;;5072939;28;20047;-45
2022/11/08 13:03:48;;;;;;;2.33;1.30;;;;;;;;;;5072443;28;20029;-45
2022/11/08 13:06:23;;;;;;;4.25;1.50;;;;;;;;;;5071816;28;20033;-47
2022/11/08 13:08:52;;;;;;;3.28;1.10;;;;;;;;;;5072972;28;20021;-44
2022/11/08 13:11:25;;;;;;;2.97;1.70;;;;;;;;;;5071837;28;20103;-49
2022/11/08 13:13:53;;;;;;;2.28;1.20;;;;;;;;;;5072797;28;20031;-46
2022/11/08 13:16:24;;;;;;;2.25;1.65;;;;;;;;;;5071750;28;20021;-44
2022/11/08 13:18:50;;;;;;;3.40;1.50;;;;;;;;;;5073036;28;20020;-44
2022/11/08 13:21:25;;;;;;;3.45;1.40;;;;;;;;;;5070826;28;20170;-50
2022/11/08 13:23:51;;;;;;;2.72;1.17;;;;;;;;;;5070168;28;20537;-44
2022/11/08 13:26:22;;;;;;;1.88;1.23;;;;;;;;;;5071950;28;20016;-48
2022/11/08 13:28:49;;;;;;;3.38;1.20;;;;;;;;;;5075240;28;20025;-44
2022/11/08 13:31:33;;;;;;;4.13;1.23;;;;;;;;;;5071995;28;20020;-49
2022/11/08 13:33:59;;;;;;;1.70;1.17;;;;;;;;;;5072232;28;20044;-44
2022/11/08 13:36:48;;;;;;;4.10;1.35;;;;;;;;;;5070940;28;20074;-44
2022/11/08 13:39:24;;;;;;;3.50;1.60;;;;;;;;;;5066566;28;20032;-49
2022/11/08 13:42:16;;;;;;;3.28;1.40;;;;;;;;;;5067040;28;20043;-44
2022/11/08 13:44:54;;;;;;;4.25;1.25;;;;;;;;;;5047135;28;20030;-44
2022/11/08 13:47:32;;;;;;;2.15;0.93;;;;;;;;;;5071656;28;20419;-44
2022/11/08 13:50:17;;;;;;;3.35;1.55;;;;;;;;;;5072052;28;20036;-44
2022/11/08 13:53:00;;;;;;;2.25;1.10;;;;;;;;;;5068619;28;20025;-44
2022/11/08 13:55:41;;;;;;;1.92;1.15;;;;;;;;;;5070797;28;20066;-44
2022/11/08 13:58:26;;;;;;;1.63;1.00;;;;;;;;;;5072126;28;20027;-45
2022/11/08 14:00:53;;;;;;;1.70;1.38;;;;;;;;;;5071977;28;20354;-44
2022/11/08 14:03:34;;;;;;;2.15;1.00;;;;;;;;;;5071366;28;20028;-45
2022/11/08 14:06:06;;;;;;;3.33;1.25;;;;;;;;;;5071814;28;20158;-44
2022/11/08 14:08:39;;;;;;;2.25;1.30;;;;;;;;;;5061725;28;20378;-44
2022/11/08 14:11:16;;;;;;;2.58;1.55;;;;;;;;;;5071202;28;20069;-44
2022/11/08 14:13:42;;;;;;;1.77;1.00;;;;;;;;;;5069097;28;20032;-44
2022/11/08 14:16:14;;;;;;;1.95;1.20;;;;;;;;;;5071150;28;20073;-44
2022/11/08 14:18:39;;;;;;;;;;;;;;;;;;5071794;28;20017;-44
2022/11/08 14:21:06;;;;;;;2.15;1.33;;;;;;;;;;5071439;28;19907;-44
2022/11/08 14:23:33;;;;;;;2.78;1.33;;;;;;;;;;5070349;28;20012;-44
2022/11/08 14:26:01;;;;;;;1.98;1.10;;;;;;;;;;5071238;28;20017;-44
2022/11/08 14:28:29;;;;;;;1.45;1.00;;;;;;;;;;5072087;28;20532;-44
2022/11/08 14:30:55;;;;;;;2.20;1.13;;;;;;;;;;5070702;28;20495;-44
2022/11/08 14:33:23;;;;;;;2.00;1.10;;;;;;;;;;5070399;28;20054;-44
2022/11/08 14:35:52;;;;;;;5.60;1.90;;;;;;;;;;5070829;28;20369;-44
2022/11/08 14:38:18;;;;;;;3.80;1.70;;;;;;;;;;5070498;28;20048;-49
2022/11/08 14:40:52;;;;;;;1.13;0.88;;;;;;;;;;5071183;28;20020;-44
2022/11/08 14:43:19;;;;;;;4.03;1.27;;;;;;;;;;5070828;28;20032;-49
2022/11/08 14:45:45;;;;;;;1.30;0.90;;;;;;;;;;5071104;28;20021;-44
2022/11/08 14:48:26;;;;;;;1.98;1.20;;;;;;;;;;5070916;28;20052;-44
2022/11/08 14:51:02;;;;;;;1.40;1.00;;;;;;;;;;5070585;28;20032;-44
2022/11/08 14:53:30;;;;;;;3.47;1.30;;;;;;;;;;5070417;28;20028;-44
2022/11/08 14:56:01;;;;;;;2.15;1.00;;;;;;;;;;5070812;28;20024;-44
2022/11/08 14:58:28;;;;;;;2.20;1.02;;;;;;;;;;5070485;28;20017;-45
2022/11/08 15:00:55;;;;;;;2.08;1.23;;;;;;;;;;5070847;28;20025;-44
2022/11/08 15:03:23;;;;;;;1.63;1.05;;;;;;;;;;5069945;28;20046;-45
2022/11/08 15:05:55;;;;;;;2.05;1.30;;;;;;;;;;5066574;28;20066;-44
2022/11/08 15:08:21;;;;;;;;;;;;;;;;;;5073528;28;20030;-44
2022/11/08 15:10:55;;;;;;;2.28;1.10;;;;;;;;;;5069235;28;19904;-44
2022/11/08 15:13:21;;;;;;;2.22;1.10;;;;;;;;;;5070354;28;20477;-45
2022/11/08 15:15:52;;;;;;;1.60;1.15;;;;;;;;;;5069718;28;20029;-44